Time;durP1;ratioP1;P1;durP2;ratioP2;P2;SDS_P1;SDS_P2;PMS_P1;PMS_P2;Temp;Humidity;BMP_temperature;BMP_pressure;BME280_temperature;BME280_humidity;BME280_pressure;Samples;Min_cycle;Max_cycle;Signal;HPM_P1;HPM_P2
2023/11/03 00:01:37;;;;;;;8.90;5.93;;;;;;;;;;5038913;28;20029;-77
2023/11/03 00:04:08;;;;;;;11.07;6.65;;;;;;;;;;5020718;28;20029;-78
2023/11/03 00:06:40;;;;;;;9.88;6.65;;;;;;;;;;5021892;28;20032;-76
2023/11/03 00:09:08;;;;;;;9.55;5.25;;;;;;;;;;5019626;28;20078;-78
2023/11/03 00:11:33;;;;;;;9.07;4.97;;;;;;;;;;5034824;28;20030;-77
2023/11/03 00:13:59;;;;;;;9.13;5.18;;;;;;;;;;5019522;28;20039;-77
2023/11/03 00:16:25;;;;;;;12.35;4.80;;;;;;;;;;5018315;28;20064;-78
2023/11/03 00:18:50;;;;;;;9.57;5.60;;;;;;;;;;5028742;28;20125;-78
2023/11/03 00:21:16;;;;;;;9.70;5.75;;;;;;;;;;5021429;28;20033;-77
2023/11/03 00:23:42;;;;;;;9.75;5.45;;;;;;;;;;5039376;28;20030;-77
2023/11/03 00:26:11;;;;;;;8.35;5.22;;;;;;;;;;5038695;28;20017;-77
2023/11/03 00:28:39;;;;;;;8.85;5.25;;;;;;;;;;5020682;28;20036;-76
2023/11/03 00:31:05;;;;;;;8.63;5.38;;;;;;;;;;5038848;28;20037;-78
2023/11/03 00:33:30;;;;;;;9.13;5.18;;;;;;;;;;5039472;28;20084;-77
2023/11/03 00:35:57;;;;;;;9.00;5.32;;;;;;;;;;5037909;28;20029;-77
2023/11/03 00:38:22;;;;;;;12.93;5.43;;;;;;;;;;5038520;28;20473;-77
2023/11/03 00:40:48;;;;;;;9.98;5.50;;;;;;;;;;5038202;28;20033;-77
2023/11/03 00:43:14;;;;;;;10.82;6.10;;;;;;;;;;5037887;28;20037;-77
2023/11/03 00:45:41;;;;;;;10.95;6.25;;;;;;;;;;5021464;28;20064;-77
2023/11/03 00:48:06;;;;;;;10.15;6.25;;;;;;;;;;5038035;28;20025;-78
2023/11/03 00:50:32;;;;;;;9.43;5.78;;;;;;;;;;5020774;28;20040;-78
2023/11/03 00:52:57;;;;;;;11.45;6.63;;;;;;;;;;5021820;28;20554;-78
2023/11/03 00:55:23;;;;;;;9.25;5.28;;;;;;;;;;5020042;28;20025;-77
2023/11/03 00:57:48;;;;;;;12.13;5.80;;;;;;;;;;5038301;28;20037;-77
2023/11/03 01:00:14;;;;;;;8.43;5.90;;;;;;;;;;5020863;28;20025;-78
2023/11/03 01:02:41;;;;;;;11.07;5.50;;;;;;;;;;5039375;28;20029;-77
2023/11/03 01:05:10;;;;;;;11.35;5.63;;;;;;;;;;5005451;28;20097;-78
2023/11/03 01:07:38;;;;;;;8.93;5.20;;;;;;;;;;5021034;28;20029;-78
2023/11/03 01:10:09;;;;;;;7.97;4.72;;;;;;;;;;5023620;28;20036;-76
2023/11/03 01:12:35;;;;;;;7.25;4.90;;;;;;;;;;5040474;28;20030;-78
2023/11/03 01:15:05;;;;;;;6.63;4.40;;;;;;;;;;5042739;28;20475;-76
2023/11/03 01:17:31;;;;;;;6.60;4.45;;;;;;;;;;5024430;28;20069;-78
2023/11/03 01:19:57;;;;;;;4.63;3.20;;;;;;;;;;5024885;28;20123;-78
2023/11/03 01:22:24;;;;;;;7.05;3.65;;;;;;;;;;5042437;28;20415;-77
2023/11/03 01:24:52;;;;;;;6.03;3.60;;;;;;;;;;5043092;28;20029;-77
2023/11/03 01:27:20;;;;;;;5.30;3.05;;;;;;;;;;5025693;28;20437;-77
2023/11/03 01:29:46;;;;;;;3.97;2.88;;;;;;;;;;5025313;28;20034;-77
2023/11/03 01:32:15;;;;;;;5.13;3.38;;;;;;;;;;5042503;28;20030;-78
2023/11/03 01:34:41;;;;;;;4.22;3.10;;;;;;;;;;5042804;28;20408;-80
2023/11/03 01:37:07;;;;;;;4.05;2.67;;;;;;;;;;5040730;28;20069;-78
2023/11/03 01:39:33;;;;;;;3.80;2.58;;;;;;;;;;5041242;28;20032;-78
2023/11/03 01:41:59;;;;;;;3.75;2.75;;;;;;;;;;5031375;28;20042;-77
2023/11/03 01:44:24;;;;;;;4.10;3.08;;;;;;;;;;5024782;28;20125;-78
2023/11/03 01:46:50;;;;;;;3.58;3.00;;;;;;;;;;5041814;28;20029;-78
2023/11/03 01:49:17;;;;;;;6.32;3.70;;;;;;;;;;5024818;28;20033;-78
2023/11/03 01:51:43;;;;;;;4.40;3.03;;;;;;;;;;5024829;28;20025;-78
2023/11/03 01:54:09;;;;;;;4.65;3.05;;;;;;;;;;5031471;28;20056;-78
2023/11/03 01:56:36;;;;;;;8.60;4.55;;;;;;;;;;5039500;28;20087;-78
2023/11/03 01:59:06;;;;;;;7.53;3.92;;;;;;;;;;5041585;28;20033;-78
2023/11/03 02:01:32;;;;;;;10.55;3.97;;;;;;;;;;5042606;28;20025;-78
2023/11/03 02:03:58;;;;;;;5.63;3.60;;;;;;;;;;5025065;28;20029;-79
2023/11/03 02:06:24;;;;;;;6.70;3.95;;;;;;;;;;5028880;28;20028;-77
2023/11/03 02:08:49;;;;;;;5.45;3.15;;;;;;;;;;5041424;28;20031;-78
2023/11/03 02:11:25;;;;;;;5.07;3.13;;;;;;;;;;5042049;28;20030;-78
2023/11/03 02:13:51;;;;;;;5.90;2.90;;;;;;;;;;5041578;28;20067;-78
2023/11/03 02:16:17;;;;;;;4.97;2.95;;;;;;;;;;5057196;28;20037;-77
2023/11/03 02:18:43;;;;;;;5.03;2.72;;;;;;;;;;5039105;28;20068;-77
2023/11/03 02:21:09;;;;;;;6.20;2.78;;;;;;;;;;5041293;28;20481;-78
2023/11/03 02:23:35;;;;;;;2.95;2.40;;;;;;;;;;5041620;28;20429;-78
2023/11/03 02:26:03;;;;;;;7.97;2.80;;;;;;;;;;5023482;28;20028;-77
2023/11/03 02:28:28;;;;;;;4.00;2.28;;;;;;;;;;5022771;28;20040;-77
2023/11/03 02:30:54;;;;;;;2.95;2.20;;;;;;;;;;5040840;28;20108;-77
2023/11/03 02:33:19;;;;;;;3.50;1.85;;;;;;;;;;5041418;28;20067;-78
2023/11/03 02:35:46;;;;;;;4.88;2.90;;;;;;;;;;5023239;28;20025;-78
2023/11/03 02:38:16;;;;;;;3.72;2.75;;;;;;;;;;5023894;28;20032;-78
2023/11/03 02:40:45;;;;;;;3.90;2.00;;;;;;;;;;5024375;28;20060;-78
2023/11/03 02:43:11;;;;;;;4.90;2.47;;;;;;;;;;5038789;28;20040;-77
2023/11/03 02:45:37;;;;;;;4.13;2.40;;;;;;;;;;5040188;28;20037;-78
2023/11/03 02:48:03;;;;;;;3.17;2.55;;;;;;;;;;5039341;28;20051;-78
2023/11/03 02:50:29;;;;;;;3.75;2.35;;;;;;;;;;5021873;28;20036;-77
2023/11/03 02:52:54;;;;;;;5.25;2.35;;;;;;;;;;5039992;28;20030;-76
2023/11/03 02:55:20;;;;;;;4.03;2.50;;;;;;;;;;5018431;28;20025;-78
2023/11/03 02:57:46;;;;;;;4.82;2.63;;;;;;;;;;5018018;28;20021;-76
2023/11/03 03:00:13;;;;;;;5.35;2.58;;;;;;;;;;5018242;28;20076;-77
2023/11/03 03:02:38;;;;;;;4.50;3.17;;;;;;;;;;5018560;28;20041;-77
2023/11/03 03:05:05;;;;;;;4.22;2.88;;;;;;;;;;5034843;28;20029;-78
2023/11/03 03:07:31;;;;;;;4.18;3.20;;;;;;;;;;5018718;28;20088;-78
2023/11/03 03:09:56;;;;;;;5.50;2.33;;;;;;;;;;5018924;28;20049;-78
2023/11/03 03:12:22;;;;;;;4.10;2.35;;;;;;;;;;5018084;28;20030;-76
2023/11/03 03:14:48;;;;;;;4.63;2.47;;;;;;;;;;5019456;28;20026;-79
2023/11/03 03:17:13;;;;;;;5.30;2.55;;;;;;;;;;5019150;28;20485;-77
2023/11/03 03:19:39;;;;;;;5.47;2.92;;;;;;;;;;5021745;28;20046;-77
2023/11/03 03:22:04;;;;;;;4.55;2.67;;;;;;;;;;5039115;28;20389;-78
2023/11/03 03:24:30;;;;;;;8.55;6.40;;;;;;;;;;5038323;28;20032;-78
2023/11/03 03:26:56;;;;;;;5.03;2.60;;;;;;;;;;5021400;28;20281;-78
2023/11/03 03:29:23;;;;;;;3.92;2.67;;;;;;;;;;5020724;28;20028;-78
2023/11/03 03:31:49;;;;;;;5.63;2.95;;;;;;;;;;5020417;28;20431;-78
2023/11/03 03:34:15;;;;;;;3.90;3.20;;;;;;;;;;5019644;28;20021;-78
2023/11/03 03:36:41;;;;;;;4.35;3.13;;;;;;;;;;5017691;28;20423;-79
2023/11/03 03:39:07;;;;;;;5.43;2.53;;;;;;;;;;5017380;28;20060;-78
2023/11/03 03:41:33;;;;;;;4.97;2.55;;;;;;;;;;5019152;28;20018;-78
2023/11/03 03:43:59;;;;;;;8.40;3.05;;;;;;;;;;5020929;28;20028;-78
2023/11/03 03:46:24;;;;;;;3.95;2.72;;;;;;;;;;5021717;28;20079;-77
2023/11/03 03:48:50;;;;;;;5.35;2.95;;;;;;;;;;5038934;28;20021;-77
2023/11/03 03:51:16;;;;;;;5.75;2.65;;;;;;;;;;5021853;28;20056;-77
2023/11/03 03:53:42;;;;;;;5.38;2.67;;;;;;;;;;5037478;28;20480;-76
2023/11/03 03:56:07;;;;;;;4.47;2.90;;;;;;;;;;5040041;28;20021;-78
2023/11/03 03:58:33;;;;;;;3.58;2.63;;;;;;;;;;5038547;28;20087;-77
2023/11/03 04:00:58;;;;;;;5.18;2.95;;;;;;;;;;5038460;28;20473;-78
2023/11/03 04:03:24;;;;;;;4.53;2.88;;;;;;;;;;5021148;28;20021;-78
2023/11/03 04:05:50;;;;;;;6.13;3.60;;;;;;;;;;5037041;28;20022;-78
2023/11/03 04:08:15;;;;;;;4.10;3.30;;;;;;;;;;5038231;28;20013;-76
2023/11/03 04:10:42;;;;;;;6.47;2.80;;;;;;;;;;5038114;28;20029;-78
2023/11/03 04:13:07;;;;;;;5.03;2.97;;;;;;;;;;5038505;28;20028;-77
2023/11/03 04:15:33;;;;;;;4.13;3.13;;;;;;;;;;5038347;28;20029;-77
2023/11/03 04:17:58;;;;;;;4.90;3.05;;;;;;;;;;5037734;28;20038;-77
2023/11/03 04:20:24;;;;;;;3.65;2.65;;;;;;;;;;5038532;28;20499;-77
2023/11/03 04:22:51;;;;;;;4.07;2.88;;;;;;;;;;5037596;28;20029;-78
2023/11/03 04:25:17;;;;;;;5.43;2.40;;;;;;;;;;5020682;28;20040;-77
2023/11/03 04:27:43;;;;;;;4.15;3.30;;;;;;;;;;5038524;28;20010;-76
2023/11/03 04:30:09;;;;;;;3.38;2.50;;;;;;;;;;5036394;28;20522;-78
2023/11/03 04:32:35;;;;;;;4.53;2.80;;;;;;;;;;5038296;28;20033;-78
2023/11/03 04:35:00;;;;;;;4.53;2.75;;;;;;;;;;5039227;28;20021;-79
2023/11/03 04:37:26;;;;;;;3.63;2.78;;;;;;;;;;5038508;28;20103;-77
2023/11/03 04:39:51;;;;;;;4.63;2.80;;;;;;;;;;5037707;28;20032;-77
2023/11/03 04:42:17;;;;;;;3.45;2.65;;;;;;;;;;5038297;28;20093;-77
2023/11/03 04:44:42;;;;;;;3.67;2.78;;;;;;;;;;5043801;28;20025;-78
2023/11/03 04:47:08;;;;;;;3.92;2.67;;;;;;;;;;5044752;28;20033;-78
2023/11/03 04:49:34;;;;;;;3.45;2.50;;;;;;;;;;5045030;28;20036;-78
2023/11/03 04:52:00;;;;;;;2.72;2.40;;;;;;;;;;5044608;28;20116;-77
2023/11/03 04:54:26;;;;;;;4.15;2.40;;;;;;;;;;5045542;28;20021;-78
2023/11/03 04:56:53;;;;;;;4.90;3.13;;;;;;;;;;5027351;28;20036;-78
2023/11/03 04:59:19;;;;;;;4.40;3.00;;;;;;;;;;5026742;28;20532;-77
2023/11/03 05:01:45;;;;;;;4.82;3.22;;;;;;;;;;5044164;28;20060;-77
2023/11/03 05:04:12;;;;;;;3.70;2.90;;;;;;;;;;5026719;28;20041;-77
2023/11/03 05:06:38;;;;;;;4.78;3.00;;;;;;;;;;5032731;28;20048;-77
2023/11/03 05:09:06;;;;;;;4.13;3.17;;;;;;;;;;5043999;28;20029;-78
2023/11/03 05:11:32;;;;;;;4.20;3.10;;;;;;;;;;5044273;28;20037;-77
2023/11/03 05:13:58;;;;;;;9.52;3.17;;;;;;;;;;5043347;28;20029;-77
2023/11/03 05:16:23;;;;;;;4.68;3.17;;;;;;;;;;5026619;28;20082;-78
2023/11/03 05:18:49;;;;;;;7.70;4.05;;;;;;;;;;5044201;28;20048;-77
2023/11/03 05:21:14;;;;;;;8.70;3.75;;;;;;;;;;5043737;28;20509;-77
2023/11/03 05:23:41;;;;;;;4.55;3.15;;;;;;;;;;5027365;28;20035;-78
2023/11/03 05:26:11;;;;;;;6.75;3.42;;;;;;;;;;5026953;28;20377;-77
2023/11/03 05:28:37;;;;;;;8.77;3.50;;;;;;;;;;5026208;28;20029;-78
2023/11/03 05:31:03;;;;;;;5.22;3.33;;;;;;;;;;5015396;28;20451;-78
2023/11/03 05:33:30;;;;;;;4.90;2.65;;;;;;;;;;5025149;28;20029;-77
2023/11/03 05:35:58;;;;;;;4.75;2.92;;;;;;;;;;5007558;28;20216;-78
2023/11/03 05:38:25;;;;;;;4.43;3.63;;;;;;;;;;5024335;28;20107;-77
2023/11/03 05:40:51;;;;;;;4.65;3.00;;;;;;;;;;5024191;28;20034;-77
2023/11/03 05:43:16;;;;;;;3.53;2.63;;;;;;;;;;5032951;28;20421;-77
2023/11/03 05:45:42;;;;;;;4.28;2.85;;;;;;;;;;5024304;28;20025;-79
2023/11/03 05:48:08;;;;;;;4.85;3.08;;;;;;;;;;5025336;28;20504;-78
2023/11/03 05:50:34;;;;;;;4.85;2.33;;;;;;;;;;5024386;28;20582;-77
2023/11/03 05:52:59;;;;;;;5.32;2.38;;;;;;;;;;5023577;28;20025;-78
2023/11/03 05:55:26;;;;;;;4.95;4.00;;;;;;;;;;5019631;28;20036;-78
2023/11/03 05:57:51;;;;;;;4.88;3.40;;;;;;;;;;5022337;28;20117;-78
2023/11/03 06:00:17;;;;;;;6.38;2.85;;;;;;;;;;5039472;28;20136;-77
2023/11/03 06:02:43;;;;;;;2.58;2.15;;;;;;;;;;5022241;28;20025;-78
2023/11/03 06:05:09;;;;;;;3.08;1.67;;;;;;;;;;5040385;28;20033;-78
2023/11/03 06:07:35;;;;;;;6.65;3.22;;;;;;;;;;5007917;28;20145;-78
2023/11/03 06:10:01;;;;;;;2.70;1.75;;;;;;;;;;5033005;28;20037;-77
2023/11/03 06:12:27;;;;;;;2.83;1.77;;;;;;;;;;5039868;28;20050;-78
2023/11/03 06:14:52;;;;;;;4.07;2.40;;;;;;;;;;5019123;28;20033;-77
2023/11/03 06:17:19;;;;;;;3.53;2.08;;;;;;;;;;5008700;28;20037;-80
2023/11/03 06:19:44;;;;;;;5.25;2.08;;;;;;;;;;5037899;28;20049;-81
2023/11/03 06:22:10;;;;;;;5.40;2.97;;;;;;;;;;5021627;28;20037;-80
2023/11/03 06:24:36;;;;;;;4.82;3.00;;;;;;;;;;5038980;28;20040;-78
2023/11/03 06:27:03;;;;;;;4.25;2.22;;;;;;;;;;5038590;28;20029;-80
2023/11/03 06:29:29;;;;;;;5.90;3.25;;;;;;;;;;5023842;28;20025;-79
2023/11/03 06:31:55;;;;;;;5.35;2.63;;;;;;;;;;5043360;28;20033;-79
2023/11/03 06:34:21;;;;;;;4.93;2.58;;;;;;;;;;5039622;28;20017;-79
2023/11/03 06:36:47;;;;;;;3.35;2.35;;;;;;;;;;5040482;28;20029;-77
2023/11/03 06:39:15;;;;;;;5.50;2.60;;;;;;;;;;5042790;28;20034;-78
2023/11/03 06:41:40;;;;;;;2.60;2.03;;;;;;;;;;5041180;28;20108;-77
2023/11/03 06:44:09;;;;;;;14.73;2.78;;;;;;;;;;5008573;28;20516;-79
2023/11/03 06:46:34;;;;;;;2.63;1.80;;;;;;;;;;5040866;28;20037;-78
2023/11/03 06:49:00;;;;;;;2.88;2.67;;;;;;;;;;5040554;28;20044;-79
2023/11/03 06:51:26;;;;;;;6.07;2.88;;;;;;;;;;5041701;28;20087;-78
2023/11/03 06:53:52;;;;;;;4.18;2.30;;;;;;;;;;5022677;28;20049;-78
2023/11/03 06:56:18;;;;;;;3.47;2.42;;;;;;;;;;5021229;28;20105;-79
2023/11/03 06:58:43;;;;;;;3.17;2.15;;;;;;;;;;5019756;28;20125;-79
2023/11/03 07:01:09;;;;;;;5.68;2.50;;;;;;;;;;5020663;28;20025;-77
2023/11/03 07:03:35;;;;;;;3.65;2.55;;;;;;;;;;5017983;28;20029;-79
2023/11/03 07:06:03;;;;;;;5.43;2.85;;;;;;;;;;5024428;28;20461;-80
2023/11/03 07:08:30;;;;;;;3.53;2.13;;;;;;;;;;5033230;28;20133;-81
2023/11/03 07:10:58;;;;;;;4.35;2.00;;;;;;;;;;5043132;28;20025;-80
2023/11/03 07:13:25;;;;;;;4.75;2.55;;;;;;;;;;5041829;28;20033;-79
2023/11/03 07:15:51;;;;;;;4.22;2.45;;;;;;;;;;5041516;28;20037;-81
2023/11/03 07:18:16;;;;;;;8.10;2.83;;;;;;;;;;5017094;28;20065;-80
2023/11/03 07:20:45;;;;;;;3.70;2.60;;;;;;;;;;5022423;28;20547;-80
2023/11/03 07:23:11;;;;;;;2.97;1.98;;;;;;;;;;5005546;28;20022;-79
2023/11/03 07:25:38;;;;;;;3.95;1.88;;;;;;;;;;5034907;28;20025;-80
2023/11/03 07:28:04;;;;;;;4.00;2.42;;;;;;;;;;5025186;28;20021;-79
2023/11/03 07:30:30;;;;;;;6.13;3.30;;;;;;;;;;5025064;28;20033;-80
2023/11/03 07:33:00;;;;;;;3.42;2.67;;;;;;;;;;5017603;28;20079;-79
2023/11/03 07:35:25;;;;;;;5.22;2.20;;;;;;;;;;5011721;28;20033;-80
2023/11/03 07:37:52;;;;;;;5.05;3.15;;;;;;;;;;5031114;28;20040;-80
2023/11/03 07:40:18;;;;;;;7.20;4.40;;;;;;;;;;5038508;28;20090;-80
2023/11/03 07:42:44;;;;;;;4.00;2.60;;;;;;;;;;5016345;28;20025;-79
2023/11/03 07:45:13;;;;;;;4.22;2.83;;;;;;;;;;5023130;28;20099;-78
2023/11/03 07:47:56;;;;;;;3.10;2.30;;;;;;;;;;5032350;28;20037;-81
2023/11/03 07:50:22;;;;;;;3.88;3.00;;;;;;;;;;5019939;28;20029;-79
2023/11/03 07:52:49;;;;;;;4.82;2.83;;;;;;;;;;5031737;28;20010;-79
2023/11/03 07:55:15;;;;;;;4.15;2.78;;;;;;;;;;5030066;28;20553;-79
2023/11/03 07:57:44;;;;;;;3.70;2.83;;;;;;;;;;5023601;28;20036;-78
2023/11/03 08:00:13;;;;;;;6.93;3.97;;;;;;;;;;5034385;28;20303;-77
2023/11/03 08:02:39;;;;;;;4.53;3.25;;;;;;;;;;5031830;28;20381;-78
2023/11/03 08:05:07;;;;;;;7.43;3.60;;;;;;;;;;5034251;28;20029;-78
2023/11/03 08:07:53;;;;;;;4.80;3.53;;;;;;;;;;5020060;28;20033;-80
2023/11/03 08:10:19;;;;;;;7.07;3.88;;;;;;;;;;5019733;28;20037;-78
2023/11/03 08:12:48;;;;;;;4.60;3.20;;;;;;;;;;5022410;28;20068;-80
2023/11/03 08:15:13;;;;;;;9.32;3.45;;;;;;;;;;5039622;28;20033;-79
2023/11/03 08:17:39;;;;;;;3.72;2.95;;;;;;;;;;5036711;28;20037;-80
2023/11/03 08:20:06;;;;;;;7.35;3.88;;;;;;;;;;5023272;28;20036;-80
2023/11/03 08:22:35;;;;;;;7.32;3.28;;;;;;;;;;5037801;28;20040;-78
2023/11/03 08:25:03;;;;;;;10.88;6.35;;;;;;;;;;5033330;28;20057;-79
2023/11/03 08:27:29;;;;;;;8.93;3.35;;;;;;;;;;5039522;28;20030;-81
2023/11/03 08:29:56;;;;;;;4.72;3.33;;;;;;;;;;5037878;28;20041;-82
2023/11/03 08:32:22;;;;;;;10.02;4.38;;;;;;;;;;5038063;28;20032;-81
2023/11/03 08:34:48;;;;;;;4.15;2.78;;;;;;;;;;5036603;28;20017;-80
2023/11/03 08:37:18;;;;;;;7.43;3.35;;;;;;;;;;5034767;28;20032;-79
2023/11/03 08:39:45;;;;;;;6.50;3.60;;;;;;;;;;5018837;28;20040;-80
2023/11/03 08:42:10;;;;;;;5.43;4.72;;;;;;;;;;5021162;28;20084;-80
2023/11/03 08:44:36;;;;;;;5.32;3.65;;;;;;;;;;5029920;28;20037;-81
2023/11/03 08:47:02;;;;;;;6.22;3.83;;;;;;;;;;5024347;28;20028;-81
2023/11/03 08:49:31;;;;;;;7.78;3.88;;;;;;;;;;5045583;28;20477;-83
2023/11/03 08:51:56;;;;;;;6.68;3.08;;;;;;;;;;5027931;28;20041;-81
2023/11/03 08:54:22;;;;;;;6.88;3.00;;;;;;;;;;5033324;28;20565;-80
2023/11/03 08:56:50;;;;;;;6.13;3.55;;;;;;;;;;5054253;28;20133;-80
2023/11/03 08:59:15;;;;;;;4.80;3.20;;;;;;;;;;5042419;28;20029;-78
2023/11/03 09:01:44;;;;;;;4.88;3.35;;;;;;;;;;5039514;28;20037;-83
2023/11/03 09:04:10;;;;;;;6.55;3.10;;;;;;;;;;5042796;28;20128;-79
2023/11/03 09:06:36;;;;;;;6.45;2.88;;;;;;;;;;5040315;28;20053;-78
2023/11/03 09:09:03;;;;;;;8.93;2.92;;;;;;;;;;5033102;28;20028;-80
2023/11/03 09:11:30;;;;;;;4.30;2.78;;;;;;;;;;5022946;28;20242;-80
2023/11/03 09:13:59;;;;;;;8.77;3.00;;;;;;;;;;5021975;28;20057;-80
2023/11/03 09:16:24;;;;;;;5.70;2.70;;;;;;;;;;5036908;28;20023;-79
2023/11/03 09:18:57;;;;;;;2.80;2.08;;;;;;;;;;5029236;28;20083;-80
2023/11/03 09:21:23;;;;;;;5.55;1.98;;;;;;;;;;5023031;28;20061;-80
2023/11/03 09:23:48;;;;;;;2.92;1.85;;;;;;;;;;5041432;28;20040;-81
2023/11/03 09:26:15;;;;;;;4.90;1.77;;;;;;;;;;5022782;28;20022;-81
2023/11/03 09:28:41;;;;;;;5.63;1.75;;;;;;;;;;5016785;28;20029;-78
2023/11/03 09:31:12;;;;;;;3.88;2.40;;;;;;;;;;5040935;28;20056;-80
2023/11/03 09:33:37;;;;;;;5.32;1.70;;;;;;;;;;5043692;28;20030;-80
2023/11/03 09:36:04;;;;;;;7.78;2.08;;;;;;;;;;5045894;28;20044;-80
2023/11/03 09:38:31;;;;;;;4.05;1.95;;;;;;;;;;5024840;28;20381;-80
2023/11/03 09:40:58;;;;;;;4.72;2.47;;;;;;;;;;5040718;28;20558;-81
2023/11/03 09:43:25;;;;;;;9.43;2.78;;;;;;;;;;5023269;28;20044;-80
2023/11/03 09:45:52;;;;;;;5.82;1.67;;;;;;;;;;5040273;28;20029;-81
2023/11/03 09:48:24;;;;;;;7.30;2.13;;;;;;;;;;5034390;28;20060;-80
2023/11/03 09:50:51;;;;;;;4.93;2.05;;;;;;;;;;5023219;28;20064;-80
2023/11/03 09:53:27;;;;;;;7.53;2.28;;;;;;;;;;5021631;28;20037;-80
2023/11/03 09:55:59;;;;;;;5.57;2.00;;;;;;;;;;5021843;28;20025;-82
2023/11/03 09:58:25;;;;;;;7.43;3.83;;;;;;;;;;5041131;28;20033;-79
2023/11/03 10:00:51;;;;;;;5.00;1.92;;;;;;;;;;5041114;28;20055;-79
2023/11/03 10:03:17;;;;;;;11.40;2.38;;;;;;;;;;5007697;28;20049;-82
2023/11/03 10:05:43;;;;;;;8.60;1.92;;;;;;;;;;5023134;28;20071;-80
2023/11/03 10:08:17;;;;;;;7.95;2.10;;;;;;;;;;5037602;28;20033;-81
2023/11/03 10:10:48;;;;;;;4.78;2.30;;;;;;;;;;5040357;28;20022;-81
2023/11/03 10:13:15;;;;;;;8.73;2.13;;;;;;;;;;5041362;28;20079;-81
2023/11/03 10:15:42;;;;;;;3.50;2.03;;;;;;;;;;5041445;28;20044;-80
2023/11/03 10:18:09;;;;;;;3.58;1.90;;;;;;;;;;5039299;28;20075;-82
2023/11/03 10:20:35;;;;;;;5.68;2.13;;;;;;;;;;5039915;28;20087;-80
2023/11/03 10:23:01;;;;;;;3.53;2.10;;;;;;;;;;5023818;28;20493;-80
2023/11/03 10:25:27;;;;;;;11.27;2.25;;;;;;;;;;5023008;28;20400;-79
2023/11/03 10:27:56;;;;;;;7.95;3.85;;;;;;;;;;5038044;28;20030;-79
2023/11/03 10:30:26;;;;;;;3.83;1.80;;;;;;;;;;5041042;28;20029;-80
2023/11/03 10:32:53;;;;;;;7.15;2.10;;;;;;;;;;5038251;28;20097;-82
2023/11/03 10:35:20;;;;;;;7.93;1.77;;;;;;;;;;5023395;28;20029;-80
2023/11/03 10:37:49;;;;;;;4.10;1.85;;;;;;;;;;5025381;28;20030;-80
2023/11/03 10:40:14;;;;;;;7.10;1.83;;;;;;;;;;5039787;28;20030;-79
2023/11/03 10:42:48;;;;;;;6.07;1.58;;;;;;;;;;5020706;28;20033;-80
2023/11/03 10:45:18;;;;;;;8.65;1.63;;;;;;;;;;5021798;28;20093;-81
2023/11/03 10:48:04;;;;;;;7.43;1.90;;;;;;;;;;5024157;28;20022;-81
2023/11/03 10:50:49;;;;;;;7.53;2.00;;;;;;;;;;5037954;28;20061;-82
2023/11/03 10:53:41;;;;;;;8.77;1.90;;;;;;;;;;5039758;28;20018;-81
2023/11/03 10:56:10;;;;;;;4.85;1.60;;;;;;;;;;5041634;28;20049;-80
2023/11/03 10:58:37;;;;;;;4.30;1.88;;;;;;;;;;5041170;28;20033;-81
2023/11/03 11:01:28;;;;;;;3.90;1.33;;;;;;;;;;5006015;28;20101;-81
2023/11/03 11:04:06;;;;;;;8.07;1.80;;;;;;;;;;5019460;28;20029;-81
2023/11/03 11:06:44;;;;;;;6.70;1.38;;;;;;;;;;5026096;28;20030;-80
2023/11/03 11:09:25;;;;;;;4.15;1.70;;;;;;;;;;5042216;28;20033;-80
2023/11/03 11:11:51;;;;;;;7.68;1.90;;;;;;;;;;5037935;28;20084;-79
2023/11/03 11:14:23;;;;;;;4.25;1.70;;;;;;;;;;5041366;28;20061;-81
2023/11/03 11:16:56;;;;;;;5.25;1.70;;;;;;;;;;5040730;28;20038;-81
2023/11/03 11:19:28;;;;;;;8.10;1.88;;;;;;;;;;5037200;28;20068;-81
2023/11/03 11:21:59;;;;;;;3.88;1.55;;;;;;;;;;5027665;28;20048;-79
2023/11/03 11:24:31;;;;;;;6.55;1.70;;;;;;;;;;5032584;28;20041;-83
2023/11/03 11:27:13;;;;;;;;;;;;;;;;;;5048735;28;20113;-81
2023/11/03 11:30:23;;;;;;;6.57;2.00;;;;;;;;;;5038477;28;19948;-81
2023/11/03 11:32:56;;;;;;;6.30;1.58;;;;;;;;;;5037008;28;20034;-83
2023/11/03 11:35:24;;;;;;;4.95;1.83;;;;;;;;;;5032557;28;20025;-82
2023/11/03 11:37:50;;;;;;;8.70;1.40;;;;;;;;;;5012804;28;20029;-81
2023/11/03 11:40:18;;;;;;;4.00;1.60;;;;;;;;;;5035371;28;20033;-80
2023/11/03 11:42:45;;;;;;;5.55;1.65;;;;;;;;;;5030740;28;20322;-81
2023/11/03 11:45:13;;;;;;;10.13;2.13;;;;;;;;;;5029880;28;20037;-80
2023/11/03 11:47:47;;;;;;;6.32;2.05;;;;;;;;;;5028409;28;20033;-81
2023/11/03 11:50:17;;;;;;;6.03;1.85;;;;;;;;;;5011655;28;20550;-80
2023/11/03 11:52:45;;;;;;;7.35;1.90;;;;;;;;;;5004623;28;20025;-81
2023/11/03 11:55:13;;;;;;;5.18;1.45;;;;;;;;;;5015351;28;20037;-80
2023/11/03 11:57:40;;;;;;;9.00;2.30;;;;;;;;;;5029325;28;20056;-79
2023/11/03 12:00:07;;;;;;;5.03;1.20;;;;;;;;;;5030935;28;20092;-80
2023/11/03 12:02:33;;;;;;;4.97;1.67;;;;;;;;;;5006578;28;20422;-81
2023/11/03 12:05:03;;;;;;;4.13;2.10;;;;;;;;;;5021836;28;20040;-80
2023/11/03 12:07:30;;;;;;;6.65;1.85;;;;;;;;;;5027653;28;20025;-81
2023/11/03 12:09:56;;;;;;;6.03;2.03;;;;;;;;;;5016362;28;20087;-79
2023/11/03 12:12:28;;;;;;;4.82;1.25;;;;;;;;;;5010108;28;20048;-78
2023/11/03 12:14:54;;;;;;;6.22;1.27;;;;;;;;;;5027592;28;20033;-84
2023/11/03 12:17:20;;;;;;;7.70;2.05;;;;;;;;;;5026979;28;20449;-81
2023/11/03 12:19:47;;;;;;;4.95;1.50;;;;;;;;;;5030239;28;20507;-80
2023/11/03 12:22:24;;;;;;;6.35;1.40;;;;;;;;;;5012095;28;20048;-81
2023/11/03 12:24:54;;;;;;;4.75;1.23;;;;;;;;;;5013269;28;20092;-82
2023/11/03 12:27:24;;;;;;;3.72;1.20;;;;;;;;;;5010038;28;20029;-83
2023/11/03 12:29:53;;;;;;;3.85;1.02;;;;;;;;;;5028998;28;20512;-83
2023/11/03 12:32:19;;;;;;;4.03;1.50;;;;;;;;;;5027775;28;20178;-82
2023/11/03 12:34:45;;;;;;;7.05;1.67;;;;;;;;;;5017644;28;20033;-81
2023/11/03 12:37:12;;;;;;;5.93;1.77;;;;;;;;;;5025120;28;20029;-83
2023/11/03 12:39:52;;;;;;;6.43;1.67;;;;;;;;;;5025913;28;20442;-82
2023/11/03 12:42:18;;;;;;;10.63;1.75;;;;;;;;;;5025088;28;20088;-79
2023/11/03 12:45:13;;;;;;;6.88;1.60;;;;;;;;;;5024495;28;20029;-79
2023/11/03 12:47:53;;;;;;;5.70;1.52;;;;;;;;;;5005765;28;20041;-82
2023/11/03 12:50:23;;;;;;;5.22;1.60;;;;;;;;;;5025809;28;20028;-82
2023/11/03 12:52:50;;;;;;;8.25;1.63;;;;;;;;;;5021747;28;20025;-80
2023/11/03 12:55:20;;;;;;;3.80;1.30;;;;;;;;;;5005793;28;20068;-81
2023/11/03 12:57:45;;;;;;;5.50;1.65;;;;;;;;;;5004994;28;20374;-80
2023/11/03 13:00:15;;;;;;;9.77;1.73;;;;;;;;;;5023107;28;20043;-79
2023/11/03 13:02:41;;;;;;;4.05;1.30;;;;;;;;;;5007033;28;20124;-81
2023/11/03 13:05:07;;;;;;;4.32;2.00;;;;;;;;;;5007098;28;20033;-79
2023/11/03 13:07:33;;;;;;;4.03;1.58;;;;;;;;;;5025214;28;20033;-78
2023/11/03 13:09:59;;;;;;;5.63;1.85;;;;;;;;;;5008283;28;20025;-78
2023/11/03 13:12:24;;;;;;;5.90;1.55;;;;;;;;;;5027413;28;20374;-78
2023/11/03 13:14:50;;;;;;;7.20;2.78;;;;;;;;;;5011442;28;20029;-80
2023/11/03 13:17:28;;;;;;;5.20;1.98;;;;;;;;;;5027096;28;20061;-80
2023/11/03 13:19:54;;;;;;;7.85;1.52;;;;;;;;;;5012389;28;20171;-80
2023/11/03 13:22:20;;;;;;;3.88;1.42;;;;;;;;;;5032022;28;20025;-80
2023/11/03 13:24:45;;;;;;;2.80;1.40;;;;;;;;;;5032345;28;20045;-80
2023/11/03 13:27:11;;;;;;;2.03;1.20;;;;;;;;;;5010868;28;20033;-78
2023/11/03 13:29:40;;;;;;;6.32;1.67;;;;;;;;;;5030774;28;20388;-80
2023/11/03 13:32:35;;;;;;;2.25;1.50;;;;;;;;;;5029700;28;20026;-79
2023/11/03 13:35:01;;;;;;;12.90;5.32;;;;;;;;;;5030116;28;20024;-78
2023/11/03 13:37:26;;;;;;;3.65;2.05;;;;;;;;;;5016406;28;20041;-81
2023/11/03 13:39:52;;;;;;;4.10;1.40;;;;;;;;;;5016293;28;20029;-81
2023/11/03 13:42:21;;;;;;;2.30;1.23;;;;;;;;;;5033580;28;20021;-83
2023/11/03 13:44:49;;;;;;;4.00;1.38;;;;;;;;;;5035291;28;20500;-80
2023/11/03 13:47:16;;;;;;;3.83;1.50;;;;;;;;;;5016885;28;20075;-81
2023/11/03 13:49:42;;;;;;;5.18;2.15;;;;;;;;;;5034203;28;20053;-83
2023/11/03 13:52:07;;;;;;;4.03;1.90;;;;;;;;;;5028274;28;20093;-81
2023/11/03 13:54:33;;;;;;;3.53;1.58;;;;;;;;;;5027537;28;20033;-81
2023/11/03 13:56:58;;;;;;;5.82;1.52;;;;;;;;;;5018103;28;20109;-81
2023/11/03 13:59:24;;;;;;;5.55;1.73;;;;;;;;;;5022395;28;20030;-81
2023/11/03 14:01:50;;;;;;;6.00;2.60;;;;;;;;;;5011064;28;20029;-80
2023/11/03 14:04:16;;;;;;;5.00;2.60;;;;;;;;;;5034643;28;20469;-81
2023/11/03 14:06:41;;;;;;;5.70;2.65;;;;;;;;;;5029676;28;20110;-81
2023/11/03 14:09:10;;;;;;;18.80;7.47;;;;;;;;;;5012078;28;20045;-84
2023/11/03 14:11:37;;;;;;;5.85;3.08;;;;;;;;;;5010721;28;20022;-83
2023/11/03 14:14:04;;;;;;;9.93;4.35;;;;;;;;;;5030920;28;20018;-83
2023/11/03 14:16:29;;;;;;;17.60;10.13;;;;;;;;;;5025497;28;20129;-82
2023/11/03 14:18:55;;;;;;;6.30;3.90;;;;;;;;;;5014336;28;20037;-82
2023/11/03 14:21:26;;;;;;;7.13;3.90;;;;;;;;;;5028695;28;20025;-83
2023/11/03 14:23:52;;;;;;;12.77;6.72;;;;;;;;;;5016074;28;20025;-81
2023/11/03 14:26:17;;;;;;;9.32;3.63;;;;;;;;;;5016133;28;20034;-81
2023/11/03 14:28:43;;;;;;;6.80;2.72;;;;;;;;;;5030663;28;20464;-82
2023/11/03 14:31:49;;;;;;;22.73;7.68;;;;;;;;;;5030390;28;20030;-82
2023/11/03 14:34:24;;;;;;;6.03;3.33;;;;;;;;;;5025763;28;20302;-81
2023/11/03 14:37:12;;;;;;;5.22;3.00;;;;;;;;;;5028100;28;20030;-83
2023/11/03 14:39:38;;;;;;;11.18;3.40;;;;;;;;;;5032402;28;20035;-83
2023/11/03 14:42:06;;;;;;;5.65;2.80;;;;;;;;;;5030379;28;20038;-82
2023/11/03 14:44:36;;;;;;;7.97;2.90;;;;;;;;;;5007991;28;20107;-82
2023/11/03 14:47:03;;;;;;;6.95;4.03;;;;;;;;;;5012319;28;20223;-83